createdAt,value
2018-01-15T00:02:07.410Z,55.60
2018-01-15T00:04:36.430Z,56.60
2018-01-15T00:07:04.782Z,56.00
2018-01-15T00:09:33.831Z,55.90
2018-01-15T00:12:02.115Z,55.80
2018-01-15T00:14:30.358Z,56.10
2018-01-15T00:16:58.690Z,55.90
2018-01-15T00:19:26.938Z,55.70
2018-01-15T00:21:55.186Z,55.40
2018-01-15T00:24:23.462Z,55.50
2018-01-15T00:26:51.713Z,55.80
2018-01-15T00:29:19.966Z,56.20
2018-01-15T00:31:48.244Z,55.70
2018-01-15T00:34:16.492Z,55.70
2018-01-15T00:36:44.745Z,56.40
2018-01-15T00:39:13.451Z,56.30
2018-01-15T00:41:41.697Z,56.00
2018-01-15T00:44:10.038Z,56.10
2018-01-15T00:46:38.294Z,55.70
2018-01-15T00:49:06.542Z,55.90
2018-01-15T00:51:34.794Z,56.10
2018-01-15T00:54:03.083Z,55.70
2018-01-15T00:56:31.334Z,55.50
2018-01-15T00:58:59.581Z,55.60
2018-01-15T01:01:28.256Z,55.90
2018-01-15T01:03:56.502Z,56.20
2018-01-15T01:06:24.754Z,55.80
2018-01-15T01:08:53.794Z,55.80
2018-01-15T01:11:22.056Z,55.80
2018-01-15T01:13:50.294Z,56.10
2018-01-15T01:16:18.574Z,56.30
2018-01-15T01:18:46.828Z,56.10
2018-01-15T01:21:15.158Z,56.40
2018-01-15T01:23:43.946Z,56.10
2018-01-15T01:26:12.198Z,56.20
2018-01-15T01:28:40.447Z,55.90
2018-01-15T01:31:08.718Z,56.50
2018-01-15T01:33:36.970Z,56.20
2018-01-15T01:36:05.230Z,56.80
2018-01-15T01:38:33.502Z,56.50
2018-01-15T01:41:01.963Z,56.60
2018-01-15T01:43:30.986Z,57.20
2018-01-15T01:45:59.539Z,57.20
2018-01-15T01:48:28.046Z,57.40
2018-01-15T01:50:56.298Z,56.90
2018-01-15T01:53:24.575Z,56.70
2018-01-15T01:55:52.874Z,57.00
2018-01-15T01:58:21.122Z,57.00
2018-01-15T02:00:49.602Z,56.80
2018-01-15T02:03:18.630Z,57.20
2018-01-15T02:05:46.874Z,57.20
2018-01-15T02:08:15.414Z,56.80
2018-01-15T02:10:43.662Z,56.90
2018-01-15T02:13:11.915Z,56.70
2018-01-15T02:15:40.957Z,57.50
2018-01-15T02:18:09.207Z,57.50
2018-01-15T02:20:37.453Z,57.30
2018-01-15T02:23:05.732Z,57.20
2018-01-15T02:25:34.750Z,57.30
2018-01-15T02:28:03.015Z,57.30
2018-01-15T02:30:32.143Z,57.40
2018-01-15T02:33:00.406Z,57.30
2018-01-15T02:35:29.658Z,57.70
2018-01-15T02:37:57.925Z,57.40
2018-01-15T02:40:26.182Z,57.90
2018-01-15T02:42:54.834Z,58.40
2018-01-15T02:45:23.114Z,58.50
2018-01-15T02:47:51.361Z,58.30
2018-01-15T02:50:19.612Z,58.10
2018-01-15T02:52:48.122Z,57.80
2018-01-15T02:55:17.306Z,57.90
2018-01-15T02:57:45.553Z,57.80
2018-01-15T03:00:13.830Z,58.40
2018-01-15T03:02:42.082Z,58.30
2018-01-15T03:05:10.334Z,58.30
2018-01-15T03:07:38.614Z,58.30
2018-01-15T03:10:07.634Z,58.70
2018-01-15T03:12:35.883Z,58.70
2018-01-15T03:15:04.423Z,58.70
2018-01-15T03:17:32.666Z,58.70
2018-01-15T03:20:01.094Z,58.90
2018-01-15T03:22:29.411Z,58.40
2018-01-15T03:24:57.622Z,58.50
2018-01-15T03:27:25.871Z,59.30
2018-01-15T03:29:54.155Z,59.50
2018-01-15T03:32:22.406Z,59.80
2018-01-15T03:34:51.431Z,60.50
2018-01-15T03:37:20.422Z,61.30
2018-01-15T03:39:48.666Z,60.60
2018-01-15T03:42:16.919Z,59.50
2018-01-15T03:44:46.114Z,60.60
2018-01-15T03:47:14.366Z,60.60
2018-01-15T03:49:42.623Z,59.80
2018-01-15T03:52:11.007Z,59.60
2018-01-15T03:54:39.275Z,60.50
2018-01-15T03:57:07.539Z,60.50
2018-01-15T03:59:35.906Z,59.50
2018-01-15T04:02:04.162Z,59.20
2018-01-15T04:04:32.412Z,59.00
2018-01-15T04:07:00.692Z,59.00
2018-01-15T04:09:28.946Z,58.80
2018-01-15T04:11:57.198Z,58.60
2018-01-15T04:14:25.485Z,58.50
2018-01-15T04:16:53.739Z,58.50
2018-01-15T04:19:21.991Z,58.60
2018-01-15T04:21:51.414Z,58.80
2018-01-15T04:24:19.760Z,58.70
2018-01-15T04:26:47.994Z,58.70
2018-01-15T04:29:16.271Z,58.80
2018-01-15T04:31:44.522Z,58.60
2018-01-15T04:34:12.777Z,58.30
2018-01-15T04:36:41.060Z,58.30
2018-01-15T04:39:09.418Z,58.10
2018-01-15T04:41:37.647Z,58.30
2018-01-15T04:44:06.982Z,58.30
2018-01-15T04:46:35.465Z,58.30
2018-01-15T04:49:03.722Z,58.70
2018-01-15T04:51:32.018Z,58.40
2018-01-15T04:54:00.307Z,58.50
2018-01-15T04:56:28.542Z,58.90
2018-01-15T04:58:56.825Z,58.70
2018-01-15T05:01:25.267Z,58.60
2018-01-15T05:03:53.506Z,58.70
2018-01-15T05:06:22.090Z,58.80
2018-01-15T05:08:50.345Z,58.50
2018-01-15T05:11:18.601Z,58.50
2018-01-15T05:13:46.882Z,58.80
2018-01-15T05:16:15.906Z,58.70
2018-01-15T05:18:44.386Z,58.60
2018-01-15T05:21:12.700Z,58.10
2018-01-15T05:23:40.906Z,58.20
2018-01-15T05:26:09.163Z,58.30
2018-01-15T05:28:37.810Z,58.60
2018-01-15T05:31:06.155Z,58.80
2018-01-15T05:33:34.402Z,58.90
2018-01-15T05:36:02.686Z,59.00
2018-01-15T05:38:30.930Z,59.30
2018-01-15T05:40:59.186Z,59.10
2018-01-15T05:43:27.467Z,58.90
2018-01-15T05:45:56.477Z,59.40
2018-01-15T05:48:24.997Z,59.30
2018-01-15T05:50:53.838Z,59.70
2018-01-15T05:53:22.095Z,59.40
2018-01-15T05:55:50.354Z,59.80
2018-01-15T05:58:18.626Z,59.60
2018-01-15T06:00:47.646Z,59.60
2018-01-15T06:03:15.897Z,59.60
2018-01-15T06:05:44.174Z,60.70
2018-01-15T06:08:12.427Z,59.30
2018-01-15T06:10:40.688Z,59.30
2018-01-15T06:13:09.250Z,60.00
2018-01-15T06:15:37.498Z,60.70
2018-01-15T06:18:05.749Z,60.30
2018-01-15T06:20:34.170Z,60.70
2018-01-15T06:23:02.418Z,61.10
2018-01-15T06:25:31.446Z,60.70
2018-01-15T06:28:00.102Z,60.80
2018-01-15T06:30:29.118Z,61.00
2018-01-15T06:32:57.434Z,61.00
2018-01-15T06:35:25.762Z,60.40
2018-01-15T06:37:54.026Z,59.60
2018-01-15T06:40:22.274Z,59.90
2018-01-15T06:42:50.750Z,59.80
2018-01-15T06:45:19.010Z,60.30
2018-01-15T06:47:47.254Z,60.40
2018-01-15T06:50:15.872Z,60.00
2018-01-15T06:52:44.102Z,60.10
2018-01-15T06:55:12.361Z,59.80
2018-01-15T06:57:41.009Z,59.80
2018-01-15T07:00:09.258Z,60.10
2018-01-15T07:02:37.522Z,59.80
2018-01-15T07:05:05.794Z,59.80
2018-01-15T07:07:34.166Z,59.90
2018-01-15T07:10:03.199Z,60.00
2018-01-15T07:12:31.502Z,60.00
2018-01-15T07:14:59.762Z,60.90
2018-01-15T07:17:28.046Z,60.70
2018-01-15T07:19:57.074Z,60.80
2018-01-15T07:22:26.247Z,60.60
2018-01-15T07:24:54.509Z,60.60
2018-01-15T07:27:22.774Z,61.10
2018-01-15T07:29:51.967Z,60.80
2018-01-15T07:32:20.215Z,61.00
2018-01-15T07:34:48.498Z,61.50
2018-01-15T07:37:17.510Z,62.50
2018-01-15T07:39:45.774Z,62.40
2018-01-15T07:42:14.282Z,61.80
2018-01-15T07:44:43.462Z,62.00
2018-01-15T07:47:11.710Z,61.70
2018-01-15T07:49:40.135Z,61.90
2018-01-15T07:52:08.814Z,62.00
2018-01-15T07:54:37.062Z,61.30
2018-01-15T07:57:05.334Z,61.10
2018-01-15T07:59:33.586Z,60.70
2018-01-15T08:02:01.839Z,60.90
2018-01-15T08:04:30.617Z,61.20
2018-01-15T08:06:58.866Z,62.30
2018-01-15T08:09:27.189Z,61.60
2018-01-15T08:11:55.430Z,61.30
2018-01-15T08:14:24.556Z,61.50
2018-01-15T08:16:53.075Z,61.50
2018-01-15T08:19:21.346Z,61.30
2018-01-15T08:21:50.614Z,61.90
2018-01-15T08:24:18.851Z,60.90
2018-01-15T08:26:47.194Z,61.20
2018-01-15T08:29:15.445Z,60.90
2018-01-15T08:31:43.696Z,61.30
2018-01-15T08:34:11.978Z,61.70
2018-01-15T08:36:40.234Z,61.30
2018-01-15T08:39:09.422Z,61.10
2018-01-15T08:41:38.466Z,60.60
2018-01-15T08:44:06.718Z,60.60
2018-01-15T08:46:34.994Z,60.20
2018-01-15T08:49:04.866Z,60.20
2018-01-15T08:51:34.686Z,60.60
2018-01-15T08:54:03.834Z,60.90
2018-01-15T08:56:32.111Z,60.80
2018-01-15T08:59:00.360Z,60.30
2018-01-15T09:01:28.623Z,60.00
2018-01-15T09:03:58.210Z,59.70
2018-01-15T09:06:26.459Z,59.60
2018-01-15T09:08:54.706Z,59.80
2018-01-15T09:11:24.418Z,59.50
2018-01-15T09:13:52.670Z,59.50
2018-01-15T09:16:20.918Z,59.80
2018-01-15T09:18:49.221Z,59.60
2018-01-15T09:21:17.474Z,59.40
2018-01-15T09:23:45.787Z,59.50
2018-01-15T09:26:14.071Z,59.40
2018-01-15T09:28:42.316Z,59.40
2018-01-15T09:31:10.564Z,59.60
2018-01-15T09:33:38.940Z,59.70
2018-01-15T09:36:08.146Z,59.40
2018-01-15T09:38:36.407Z,59.40
2018-01-15T09:41:04.688Z,59.20
2018-01-15T09:43:32.926Z,58.80
2018-01-15T09:46:01.178Z,59.00
2018-01-15T09:48:30.217Z,58.90
2018-01-15T09:50:58.530Z,58.90
2018-01-15T09:53:26.874Z,59.50
2018-01-15T09:55:55.412Z,59.80
2018-01-15T09:58:24.430Z,60.00
2018-01-15T10:00:52.690Z,60.00
2018-01-15T10:03:21.730Z,60.10
2018-01-15T10:05:49.982Z,60.00
2018-01-15T10:08:18.242Z,59.80
2018-01-15T10:10:46.518Z,59.70
2018-01-15T10:13:15.562Z,58.90
2018-01-15T10:15:43.815Z,58.90
2018-01-15T10:18:12.342Z,59.10
2018-01-15T10:20:40.612Z,58.90
2018-01-15T10:23:08.862Z,59.10
2018-01-15T10:25:37.141Z,58.60
2018-01-15T10:28:06.304Z,58.90
2018-01-15T10:30:34.570Z,59.20
2018-01-15T10:33:02.853Z,59.40
2018-01-15T10:35:31.110Z,59.60
2018-01-15T10:37:59.358Z,58.20
2018-01-15T10:40:28.031Z,58.20
2018-01-15T10:42:56.285Z,58.40
2018-01-15T10:45:24.714Z,57.90
2018-01-15T10:47:52.995Z,58.40
2018-01-15T10:50:21.356Z,58.60
2018-01-15T10:52:49.586Z,57.70
2018-01-15T10:55:17.867Z,57.20
2018-01-15T10:57:46.334Z,57.60
2018-01-15T11:00:14.594Z,58.00
2018-01-15T11:02:42.979Z,57.00
2018-01-15T11:05:11.325Z,56.90
2018-01-15T11:07:40.742Z,56.80
2018-01-15T11:10:09.926Z,56.70
2018-01-15T11:12:39.266Z,56.80
2018-01-15T11:15:08.535Z,56.80
2018-01-15T11:17:37.258Z,57.30
2018-01-15T11:20:05.528Z,57.00
2018-01-15T11:22:33.766Z,57.50
2018-01-15T11:25:03.090Z,57.20
2018-01-15T11:27:31.343Z,57.80
2018-01-15T11:30:00.745Z,57.80
2018-01-15T11:32:29.253Z,58.10
2018-01-15T11:34:58.548Z,58.50
2018-01-15T11:37:26.794Z,58.20
2018-01-15T11:39:55.070Z,58.40
2018-01-15T11:42:23.326Z,58.50
2018-01-15T11:44:52.338Z,58.60
2018-01-15T11:47:21.034Z,58.50
2018-01-15T11:49:50.198Z,58.60
2018-01-15T11:52:19.394Z,58.60
2018-01-15T11:54:47.738Z,58.40
2018-01-15T11:57:16.023Z,58.30
2018-01-15T11:59:44.586Z,58.60
2018-01-15T12:02:12.878Z,58.90
2018-01-15T12:04:41.107Z,58.70
2018-01-15T12:07:09.363Z,59.10
2018-01-15T12:09:38.291Z,59.10
2018-01-15T12:12:07.674Z,59.20
2018-01-15T12:14:36.009Z,59.40
2018-01-15T12:17:04.271Z,59.30
2018-01-15T12:19:32.516Z,59.00
2018-01-15T12:22:00.775Z,59.20
2018-01-15T12:24:29.050Z,59.40
2018-01-15T12:26:57.425Z,59.50
2018-01-15T12:29:25.724Z,59.60
2018-01-15T12:31:54.162Z,59.60
2018-01-15T12:34:22.406Z,59.90
2018-01-15T12:36:50.662Z,59.80
2018-01-15T12:39:18.934Z,59.80
2018-01-15T12:41:47.185Z,60.00
2018-01-15T12:44:15.438Z,60.10
2018-01-15T12:46:45.394Z,60.10
2018-01-15T12:49:13.699Z,60.20
2018-01-15T12:51:41.964Z,60.00
2018-01-15T12:54:10.652Z,60.00
2018-01-15T12:56:38.902Z,59.90
2018-01-15T12:59:07.154Z,59.90
2018-01-15T13:01:35.543Z,59.80
2018-01-15T13:04:03.800Z,59.50
2018-01-15T13:06:43.770Z,59.40
2018-01-15T13:09:12.030Z,59.80
2018-01-15T13:11:41.055Z,60.00
2018-01-15T13:14:09.577Z,59.90
2018-01-15T13:16:37.823Z,59.70
2018-01-15T13:19:06.070Z,59.80
2018-01-15T13:21:35.113Z,60.00
2018-01-15T13:24:03.362Z,60.00
2018-01-15T13:26:32.222Z,60.40
2018-01-15T13:29:01.276Z,60.90
2018-01-15T13:31:29.526Z,60.90
2018-01-15T13:33:57.774Z,60.90
2018-01-15T13:36:26.167Z,60.30
2018-01-15T13:38:54.421Z,60.30
2018-01-15T13:41:22.710Z,60.00
2018-01-15T13:43:51.863Z,60.20
2018-01-15T13:46:20.098Z,60.10
2018-01-15T13:48:49.518Z,59.80
2018-01-15T13:51:17.779Z,59.90
2018-01-15T13:53:46.030Z,59.90
2018-01-15T13:56:14.282Z,60.10
2018-01-15T13:58:42.702Z,60.00
2018-01-15T14:01:11.792Z,60.10
2018-01-15T14:03:40.274Z,60.20
2018-01-15T14:06:08.605Z,60.40
2018-01-15T14:08:36.854Z,60.70
2018-01-15T14:11:05.171Z,60.80
2018-01-15T14:13:36.246Z,60.70
2018-01-15T14:16:05.258Z,60.90
2018-01-15T14:18:33.511Z,60.90
2018-01-15T14:21:02.351Z,60.90
2018-01-15T14:23:32.526Z,61.00
2018-01-15T14:26:01.551Z,62.10
2018-01-15T14:28:30.746Z,62.10
2018-01-15T14:31:00.707Z,62.30
2018-01-15T14:33:40.061Z,62.30
2018-01-15T14:36:10.678Z,62.20
2018-01-15T14:38:39.445Z,62.00
2018-01-15T14:41:07.700Z,62.00
2018-01-15T14:43:36.157Z,62.70
2018-01-15T14:46:05.450Z,62.80
2018-01-15T14:48:34.531Z,62.30
2018-01-15T14:51:02.845Z,62.20
2018-01-15T14:53:31.773Z,62.30
2018-01-15T14:56:00.020Z,62.20
2018-01-15T14:58:28.557Z,62.10
2018-01-15T15:00:56.922Z,62.20
2018-01-15T15:03:25.194Z,62.70
2018-01-15T15:05:53.442Z,63.10
2018-01-15T15:08:21.789Z,62.90
2018-01-15T15:10:50.914Z,63.00
2018-01-15T15:13:20.726Z,63.10
2018-01-15T15:15:50.030Z,62.90
2018-01-15T15:18:18.282Z,62.60
2018-01-15T15:20:46.539Z,62.30
2018-01-15T15:23:15.803Z,62.10
2018-01-15T15:25:44.053Z,62.10
2018-01-15T15:28:12.305Z,61.70
2018-01-15T15:30:40.582Z,61.70
2018-01-15T15:33:09.645Z,62.20
2018-01-15T15:35:37.907Z,62.20
2018-01-15T15:38:06.182Z,62.60
2018-01-15T15:40:34.518Z,62.60
2018-01-15T15:43:03.526Z,62.70
2018-01-15T15:45:31.861Z,62.70
2018-01-15T15:48:00.111Z,62.00
2018-01-15T15:50:28.388Z,62.00
2018-01-15T15:52:56.969Z,61.90
2018-01-15T15:55:25.227Z,62.80
2018-01-15T15:57:53.461Z,61.70
2018-01-15T16:00:21.742Z,62.10
2018-01-15T16:02:50.761Z,61.80
2018-01-15T16:05:19.161Z,61.80
2018-01-15T16:07:47.656Z,61.50
2018-01-15T16:10:15.894Z,61.80
2018-01-15T16:12:44.142Z,62.00
2018-01-15T16:15:12.485Z,61.80
2018-01-15T16:17:40.868Z,62.40
2018-01-15T16:20:09.098Z,62.60
2018-01-15T16:22:49.342Z,62.50
2018-01-15T16:25:17.794Z,62.60
2018-01-15T16:27:46.055Z,62.60
2018-01-15T16:30:14.330Z,63.00
2018-01-15T16:32:42.583Z,62.80
2018-01-15T16:35:11.002Z,62.60
2018-01-15T16:37:39.283Z,62.40
2018-01-15T16:40:07.645Z,62.10
2018-01-15T16:42:35.886Z,62.10
2018-01-15T16:45:04.334Z,62.40
2018-01-15T16:47:32.590Z,62.50
2018-01-15T16:50:07.343Z,62.50
2018-01-15T16:52:37.590Z,62.90
2018-01-15T16:55:05.846Z,62.90
2018-01-15T16:57:34.920Z,62.60
2018-01-15T17:00:04.687Z,62.70
2018-01-15T17:02:32.930Z,62.60
2018-01-15T17:05:01.472Z,62.60
2018-01-15T17:07:29.781Z,62.90
2018-01-15T17:09:58.024Z,63.10
2018-01-15T17:12:26.330Z,62.50
2018-01-15T17:14:54.582Z,62.20
2018-01-15T17:17:22.829Z,62.10
2018-01-15T17:19:51.106Z,62.70
2018-01-15T17:22:19.349Z,62.30
2018-01-15T17:24:48.370Z,63.10
2018-01-15T17:27:17.194Z,63.10
2018-01-15T17:29:45.479Z,62.90
2018-01-15T17:32:13.875Z,63.00
2018-01-15T17:34:42.142Z,62.90
2018-01-15T17:37:10.402Z,62.90
2018-01-15T17:39:38.654Z,63.40
2018-01-15T17:42:06.934Z,63.20
2018-01-15T17:44:35.177Z,63.10
2018-01-15T17:47:04.198Z,63.40
2018-01-15T17:49:33.118Z,63.40
2018-01-15T17:52:01.371Z,63.50
2018-01-15T17:54:29.626Z,63.20
2018-01-15T17:56:57.898Z,63.40
2018-01-15T17:59:26.174Z,64.00
2018-01-15T18:01:55.724Z,64.30
2018-01-15T18:04:24.058Z,64.10
2018-01-15T18:06:52.403Z,64.50
2018-01-15T18:09:20.786Z,64.00
2018-01-15T18:11:49.263Z,64.20
2018-01-15T18:14:17.522Z,64.00
2018-01-15T18:16:45.779Z,63.50
2018-01-15T18:19:14.074Z,64.10
2018-01-15T18:21:42.329Z,64.20
2018-01-15T18:24:11.860Z,64.60
2018-01-15T18:26:40.135Z,65.20
2018-01-15T18:29:08.387Z,65.30
2018-01-15T18:31:36.847Z,65.40
2018-01-15T18:34:05.397Z,65.40
2018-01-15T18:36:33.870Z,65.80
2018-01-15T18:39:02.255Z,65.60
2018-01-15T18:41:30.666Z,65.50
2018-01-15T18:43:59.218Z,65.30
2018-01-15T18:46:27.454Z,65.10
2018-01-15T18:48:57.949Z,64.80
2018-01-15T18:51:26.970Z,64.80
2018-01-15T18:53:55.218Z,64.80
2018-01-15T18:56:23.562Z,64.90
2018-01-15T18:58:51.829Z,65.10
2018-01-15T19:01:20.066Z,65.10
2018-01-15T19:03:48.521Z,65.30
2018-01-15T19:06:17.834Z,65.80
2018-01-15T19:08:46.927Z,66.30
2018-01-15T19:11:15.206Z,66.30
2018-01-15T19:13:44.229Z,66.50
2018-01-15T19:16:12.546Z,66.40
2018-01-15T19:18:41.014Z,65.90
2018-01-15T19:21:10.423Z,65.90
2018-01-15T19:23:38.655Z,66.00
2018-01-15T19:26:06.938Z,66.30
2018-01-15T19:28:35.190Z,67.00
2018-01-15T19:31:04.211Z,66.70
2018-01-15T19:33:32.493Z,66.70
2018-01-15T19:39:05.581Z,66.30
2018-01-15T19:41:35.624Z,66.30
2018-01-15T19:44:09.638Z,66.80
2018-01-15T19:46:43.676Z,66.60
2018-01-15T19:49:17.675Z,66.40
2018-01-15T19:51:51.698Z,66.80
2018-01-15T19:54:25.942Z,67.10
2018-01-15T19:57:00.856Z,67.50
2018-01-15T19:59:34.834Z,67.40
2018-01-15T20:02:08.659Z,66.90
2018-01-15T20:04:42.478Z,67.10
2018-01-15T20:07:16.658Z,68.20
2018-01-15T20:09:50.896Z,68.10
2018-01-15T20:12:19.141Z,67.50
2018-01-15T20:14:47.394Z,67.90
2018-01-15T20:17:15.685Z,68.30
2018-01-15T20:19:43.940Z,68.40
2018-01-15T20:22:12.394Z,68.50
2018-01-15T20:24:40.674Z,70.30
2018-01-15T20:27:08.957Z,69.70
2018-01-15T20:29:37.181Z,69.50
2018-01-15T20:32:05.687Z,69.80
2018-01-15T20:34:33.942Z,71.60
2018-01-15T20:37:02.195Z,71.60
2018-01-15T20:39:30.474Z,72.60
2018-01-15T20:41:59.490Z,71.90
2018-01-15T20:44:27.744Z,71.90
2018-01-15T20:46:56.018Z,73.90
2018-01-15T20:49:24.270Z,73.40
2018-01-15T20:51:52.514Z,78.00
2018-01-15T20:54:21.398Z,76.20
2018-01-15T20:56:49.642Z,76.20
2018-01-15T20:59:17.901Z,77.80
2018-01-15T21:01:46.166Z,78.00
2018-01-15T21:04:14.424Z,76.80
2018-01-15T21:06:43.988Z,75.50
2018-01-15T21:09:12.581Z,75.40
2018-01-15T21:11:40.827Z,76.50
2018-01-15T21:14:09.167Z,76.30
2018-01-15T21:16:37.822Z,80.70
2018-01-15T21:19:06.074Z,79.60
2018-01-15T21:21:35.095Z,81.30
2018-01-15T21:24:03.350Z,81.40
2018-01-15T21:26:31.586Z,82.50
2018-01-15T21:28:59.830Z,84.50
2018-01-15T21:31:28.103Z,81.70
2018-01-15T21:33:56.341Z,82.30
2018-01-15T21:36:25.346Z,83.60
2018-01-15T21:38:55.093Z,85.40
2018-01-15T21:41:23.334Z,85.30
2018-01-15T21:43:52.346Z,87.60
2018-01-15T21:46:20.630Z,87.60
2018-01-15T21:48:48.867Z,84.60
2018-01-15T21:51:17.873Z,86.00
2018-01-15T21:53:46.146Z,85.90
2018-01-15T21:56:15.166Z,88.60
2018-01-15T21:58:46.558Z,88.50
2018-01-15T22:01:15.018Z,90.20
2018-01-15T22:03:43.254Z,90.60
2018-01-15T22:06:11.498Z,90.40
2018-01-15T22:08:39.803Z,90.50
2018-01-15T22:11:08.490Z,91.10
2018-01-15T22:13:36.730Z,90.20
2018-01-15T22:16:04.998Z,91.70
2018-01-15T22:18:33.242Z,92.30
2018-01-15T22:21:01.485Z,92.90
2018-01-15T22:23:30.181Z,90.70
2018-01-15T22:25:58.425Z,91.30
2018-01-15T22:28:26.665Z,89.60
2018-01-15T22:30:54.938Z,89.60
2018-01-15T22:33:23.174Z,91.40
2018-01-15T22:35:51.416Z,90.00
2018-01-15T22:38:19.674Z,90.20
2018-01-15T22:40:47.914Z,92.00
2018-01-15T22:43:16.155Z,90.30
2018-01-15T22:45:44.631Z,90.40
2018-01-15T22:48:12.874Z,90.40
2018-01-15T22:50:41.115Z,90.30
2018-01-15T22:53:10.148Z,91.70
2018-01-15T22:55:38.384Z,91.60
2018-01-15T22:58:07.390Z,92.10
2018-01-15T23:00:35.746Z,92.40
2018-01-15T23:03:03.981Z,90.50
2018-01-15T23:05:32.222Z,90.30
2018-01-15T23:08:01.454Z,90.50
2018-01-15T23:10:29.744Z,90.40
2018-01-15T23:12:58.278Z,90.60
2018-01-15T23:15:27.311Z,89.80
2018-01-15T23:17:55.556Z,89.80
2018-01-15T23:20:23.790Z,89.80
2018-01-15T23:22:52.054Z,90.10
2018-01-15T23:25:20.298Z,91.60
2018-01-15T23:27:48.555Z,92.40
2018-01-15T23:30:17.893Z,92.80
2018-01-15T23:32:46.130Z,92.70
2018-01-15T23:35:14.568Z,92.90
2018-01-15T23:37:42.830Z,92.00
2018-01-15T23:40:11.070Z,92.80
2018-01-15T23:42:40.082Z,91.90
2018-01-15T23:45:08.458Z,91.90
2018-01-15T23:47:36.727Z,93.60
2018-01-15T23:50:04.965Z,92.70
2018-01-15T23:52:33.666Z,93.20
2018-01-15T23:55:01.905Z,93.10
2018-01-15T23:57:30.150Z,92.90
2018-01-15T23:59:58.459Z,92.20
